sensor_id;sensor_type;location;lat;lon;timestamp;temperature;humidity
26103;DHT22;69760;49.380;8.998;2023-07-16T00:00:04;21.10;99.90
26103;DHT22;69760;49.380;8.998;2023-07-16T00:02:30;21.20;99.90
26103;DHT22;69760;49.380;8.998;2023-07-16T00:04:55;21.10;99.90
26103;DHT22;69760;49.380;8.998;2023-07-16T00:07:21;21.10;99.90
26103;DHT22;69760;49.380;8.998;2023-07-16T00:09:46;21.10;99.90
26103;DHT22;69760;49.380;8.998;2023-07-16T00:12:12;21.10;99.90
26103;DHT22;69760;49.380;8.998;2023-07-16T00:14:38;21.20;99.90
26103;DHT22;69760;49.380;8.998;2023-07-16T00:17:03;21.20;99.90
26103;DHT22;69760;49.380;8.998;2023-07-16T00:19:29;21.20;99.90
26103;DHT22;69760;49.380;8.998;2023-07-16T00:21:54;21.10;99.90
26103;DHT22;69760;49.380;8.998;2023-07-16T00:24:20;21.10;99.90
26103;DHT22;69760;49.380;8.998;2023-07-16T00:26:45;21.00;99.90
26103;DHT22;69760;49.380;8.998;2023-07-16T00:29:11;21.00;99.90
26103;DHT22;69760;49.380;8.998;2023-07-16T00:31:36;20.80;99.90
26103;DHT22;69760;49.380;8.998;2023-07-16T00:34:02;20.80;99.90
26103;DHT22;69760;49.380;8.998;2023-07-16T00:36:27;20.80;99.90
26103;DHT22;69760;49.380;8.998;2023-07-16T00:38:53;20.70;99.90
26103;DHT22;69760;49.380;8.998;2023-07-16T00:41:18;20.70;99.90
26103;DHT22;69760;49.380;8.998;2023-07-16T00:43:44;20.80;99.90
26103;DHT22;69760;49.380;8.998;2023-07-16T00:46:10;20.70;99.90
26103;DHT22;69760;49.380;8.998;2023-07-16T00:48:36;20.70;99.90
26103;DHT22;69760;49.380;8.998;2023-07-16T00:51:03;20.70;99.90
26103;DHT22;69760;49.380;8.998;2023-07-16T00:53:30;20.60;99.90
26103;DHT22;69760;49.380;8.998;2023-07-16T00:55:55;20.50;99.90
26103;DHT22;69760;49.380;8.998;2023-07-16T00:58:21;20.50;99.90
26103;DHT22;69760;49.380;8.998;2023-07-16T01:00:46;20.40;99.90
26103;DHT22;69760;49.380;8.998;2023-07-16T01:03:14;20.40;99.90
26103;DHT22;69760;49.380;8.998;2023-07-16T01:08:30;20.30;99.90
26103;DHT22;69760;49.380;8.998;2023-07-16T01:10:57;20.20;99.90
26103;DHT22;69760;49.380;8.998;2023-07-16T01:13:23;20.20;99.90
26103;DHT22;69760;49.380;8.998;2023-07-16T01:15:50;20.10;99.90
26103;DHT22;69760;49.380;8.998;2023-07-16T01:18:15;20.10;99.90
26103;DHT22;69760;49.380;8.998;2023-07-16T01:20:41;20.20;99.90
26103;DHT22;69760;49.380;8.998;2023-07-16T01:29:31;19.70;99.90
26103;DHT22;69760;49.380;8.998;2023-07-16T01:32:02;19.70;99.90
26103;DHT22;69760;49.380;8.998;2023-07-16T01:34:30;19.70;99.90
26103;DHT22;69760;49.380;8.998;2023-07-16T01:36:59;19.60;99.90
26103;DHT22;69760;49.380;8.998;2023-07-16T01:39:25;19.60;99.90
26103;DHT22;69760;49.380;8.998;2023-07-16T01:41:51;19.60;99.90
26103;DHT22;69760;49.380;8.998;2023-07-16T01:44:17;19.50;99.90
26103;DHT22;69760;49.380;8.998;2023-07-16T01:46:42;19.40;99.90
26103;DHT22;69760;49.380;8.998;2023-07-16T01:49:08;19.40;99.90
26103;DHT22;69760;49.380;8.998;2023-07-16T01:51:33;19.40;99.90
26103;DHT22;69760;49.380;8.998;2023-07-16T01:53:59;19.40;99.90
26103;DHT22;69760;49.380;8.998;2023-07-16T01:56:24;19.40;99.90
26103;DHT22;69760;49.380;8.998;2023-07-16T01:58:50;19.30;99.90
26103;DHT22;69760;49.380;8.998;2023-07-16T02:01:15;19.30;99.90
26103;DHT22;69760;49.380;8.998;2023-07-16T02:03:41;19.20;99.90
26103;DHT22;69760;49.380;8.998;2023-07-16T02:06:06;19.20;99.90
26103;DHT22;69760;49.380;8.998;2023-07-16T02:08:32;19.10;99.90
26103;DHT22;69760;49.380;8.998;2023-07-16T02:10:57;19.10;99.90
26103;DHT22;69760;49.380;8.998;2023-07-16T02:13:23;19.10;99.90
26103;DHT22;69760;49.380;8.998;2023-07-16T02:15:48;19.00;99.90
26103;DHT22;69760;49.380;8.998;2023-07-16T02:18:14;19.00;99.90
26103;DHT22;69760;49.380;8.998;2023-07-16T02:20:39;18.90;99.90
26103;DHT22;69760;49.380;8.998;2023-07-16T02:23:05;18.80;99.90
26103;DHT22;69760;49.380;8.998;2023-07-16T02:25:32;18.80;99.90
26103;DHT22;69760;49.380;8.998;2023-07-16T02:27:57;18.70;99.90
26103;DHT22;69760;49.380;8.998;2023-07-16T02:30:23;18.60;99.90
26103;DHT22;69760;49.380;8.998;2023-07-16T02:32:48;18.60;99.90
26103;DHT22;69760;49.380;8.998;2023-07-16T02:35:15;18.60;99.90
26103;DHT22;69760;49.380;8.998;2023-07-16T02:37:40;18.60;99.90
26103;DHT22;69760;49.380;8.998;2023-07-16T02:40:06;18.50;99.90
26103;DHT22;69760;49.380;8.998;2023-07-16T02:42:32;18.50;99.90
26103;DHT22;69760;49.380;8.998;2023-07-16T02:44:57;18.50;99.90
26103;DHT22;69760;49.380;8.998;2023-07-16T02:47:23;18.50;99.90
26103;DHT22;69760;49.380;8.998;2023-07-16T02:49:51;18.50;99.90
26103;DHT22;69760;49.380;8.998;2023-07-16T02:52:17;18.50;99.90
26103;DHT22;69760;49.380;8.998;2023-07-16T02:54:43;18.50;99.90
26103;DHT22;69760;49.380;8.998;2023-07-16T02:57:08;18.50;99.90
26103;DHT22;69760;49.380;8.998;2023-07-16T02:59:34;18.50;99.90
26103;DHT22;69760;49.380;8.998;2023-07-16T03:01:59;18.50;99.90
26103;DHT22;69760;49.380;8.998;2023-07-16T03:04:25;18.50;99.90
26103;DHT22;69760;49.380;8.998;2023-07-16T03:06:51;18.40;99.90
26103;DHT22;69760;49.380;8.998;2023-07-16T03:09:17;18.30;99.90
26103;DHT22;69760;49.380;8.998;2023-07-16T03:11:43;18.40;99.90
26103;DHT22;69760;49.380;8.998;2023-07-16T03:14:08;18.30;99.90
26103;DHT22;69760;49.380;8.998;2023-07-16T03:16:34;18.30;99.90
26103;DHT22;69760;49.380;8.998;2023-07-16T03:18:59;18.30;99.90
26103;DHT22;69760;49.380;8.998;2023-07-16T03:21:25;18.30;99.90
26103;DHT22;69760;49.380;8.998;2023-07-16T03:23:50;18.30;99.90
26103;DHT22;69760;49.380;8.998;2023-07-16T03:26:16;18.40;99.90
26103;DHT22;69760;49.380;8.998;2023-07-16T03:28:41;18.40;99.90
26103;DHT22;69760;49.380;8.998;2023-07-16T03:31:07;18.30;99.90
26103;DHT22;69760;49.380;8.998;2023-07-16T03:33:32;18.30;99.90
26103;DHT22;69760;49.380;8.998;2023-07-16T03:35:58;18.30;99.90
26103;DHT22;69760;49.380;8.998;2023-07-16T03:38:23;18.30;99.90
26103;DHT22;69760;49.380;8.998;2023-07-16T03:40:50;18.20;99.90
26103;DHT22;69760;49.380;8.998;2023-07-16T03:43:16;18.30;99.90
26103;DHT22;69760;49.380;8.998;2023-07-16T03:45:43;18.20;99.90
26103;DHT22;69760;49.380;8.998;2023-07-16T03:48:08;18.20;99.90
26103;DHT22;69760;49.380;8.998;2023-07-16T03:50:35;18.30;99.90
26103;DHT22;69760;49.380;8.998;2023-07-16T03:53:01;18.40;99.90
26103;DHT22;69760;49.380;8.998;2023-07-16T03:55:26;18.40;99.90
26103;DHT22;69760;49.380;8.998;2023-07-16T03:57:52;18.40;99.90
26103;DHT22;69760;49.380;8.998;2023-07-16T04:00:18;18.30;99.90
26103;DHT22;69760;49.380;8.998;2023-07-16T04:02:43;18.30;99.90
26103;DHT22;69760;49.380;8.998;2023-07-16T04:05:09;18.30;99.90
26103;DHT22;69760;49.380;8.998;2023-07-16T04:07:35;18.30;99.90
26103;DHT22;69760;49.380;8.998;2023-07-16T04:10:01;18.30;99.90
26103;DHT22;69760;49.380;8.998;2023-07-16T04:12:26;18.30;99.90
26103;DHT22;69760;49.380;8.998;2023-07-16T04:14:56;18.20;99.90
26103;DHT22;69760;49.380;8.998;2023-07-16T04:17:22;18.20;99.90
26103;DHT22;69760;49.380;8.998;2023-07-16T04:19:48;18.20;99.90
26103;DHT22;69760;49.380;8.998;2023-07-16T04:22:13;18.20;99.90
26103;DHT22;69760;49.380;8.998;2023-07-16T04:24:39;18.20;99.90
26103;DHT22;69760;49.380;8.998;2023-07-16T04:27:05;18.20;99.90
26103;DHT22;69760;49.380;8.998;2023-07-16T04:29:30;18.10;99.90
26103;DHT22;69760;49.380;8.998;2023-07-16T04:31:56;18.10;99.90
26103;DHT22;69760;49.380;8.998;2023-07-16T04:34:21;18.20;99.90
26103;DHT22;69760;49.380;8.998;2023-07-16T04:36:47;18.20;99.90
26103;DHT22;69760;49.380;8.998;2023-07-16T04:39:12;18.10;99.90
26103;DHT22;69760;49.380;8.998;2023-07-16T04:41:38;18.20;99.90
26103;DHT22;69760;49.380;8.998;2023-07-16T04:44:04;18.30;99.90
26103;DHT22;69760;49.380;8.998;2023-07-16T04:46:30;18.20;99.90
26103;DHT22;69760;49.380;8.998;2023-07-16T04:48:56;18.10;99.90
26103;DHT22;69760;49.380;8.998;2023-07-16T04:51:22;18.10;99.90
26103;DHT22;69760;49.380;8.998;2023-07-16T04:53:48;18.10;99.90
26103;DHT22;69760;49.380;8.998;2023-07-16T04:56:14;18.20;99.90
26103;DHT22;69760;49.380;8.998;2023-07-16T04:58:40;18.20;99.90
26103;DHT22;69760;49.380;8.998;2023-07-16T05:01:07;18.20;99.90
26103;DHT22;69760;49.380;8.998;2023-07-16T05:03:33;18.20;99.90
26103;DHT22;69760;49.380;8.998;2023-07-16T05:05:58;18.20;99.90
26103;DHT22;69760;49.380;8.998;2023-07-16T05:08:24;18.20;99.90
26103;DHT22;69760;49.380;8.998;2023-07-16T05:10:49;18.30;99.90
26103;DHT22;69760;49.380;8.998;2023-07-16T05:13:15;18.30;99.90
26103;DHT22;69760;49.380;8.998;2023-07-16T05:15:43;18.30;99.90
26103;DHT22;69760;49.380;8.998;2023-07-16T05:18:08;18.30;99.90
26103;DHT22;69760;49.380;8.998;2023-07-16T05:20:34;18.20;99.90
26103;DHT22;69760;49.380;8.998;2023-07-16T05:22:59;18.20;99.90
26103;DHT22;69760;49.380;8.998;2023-07-16T05:25:25;18.20;99.90
26103;DHT22;69760;49.380;8.998;2023-07-16T05:27:50;18.20;99.90
26103;DHT22;69760;49.380;8.998;2023-07-16T05:30:16;18.20;99.90
26103;DHT22;69760;49.380;8.998;2023-07-16T05:32:41;18.20;99.90
26103;DHT22;69760;49.380;8.998;2023-07-16T05:35:07;18.30;99.90
26103;DHT22;69760;49.380;8.998;2023-07-16T05:37:33;18.30;99.90
26103;DHT22;69760;49.380;8.998;2023-07-16T05:39:58;18.30;99.90
26103;DHT22;69760;49.380;8.998;2023-07-16T05:42:24;18.40;99.90
26103;DHT22;69760;49.380;8.998;2023-07-16T05:44:49;18.40;99.90
26103;DHT22;69760;49.380;8.998;2023-07-16T05:47:15;18.40;99.90
26103;DHT22;69760;49.380;8.998;2023-07-16T05:49:41;18.40;99.90
26103;DHT22;69760;49.380;8.998;2023-07-16T05:52:06;18.30;99.90
26103;DHT22;69760;49.380;8.998;2023-07-16T05:54:32;18.40;99.90
26103;DHT22;69760;49.380;8.998;2023-07-16T05:56:58;18.40;99.90
26103;DHT22;69760;49.380;8.998;2023-07-16T05:59:23;18.50;99.90
26103;DHT22;69760;49.380;8.998;2023-07-16T06:01:49;18.50;99.90
26103;DHT22;69760;49.380;8.998;2023-07-16T06:04:14;18.50;99.90
26103;DHT22;69760;49.380;8.998;2023-07-16T06:06:40;18.50;99.90
26103;DHT22;69760;49.380;8.998;2023-07-16T06:09:05;18.40;99.90
26103;DHT22;69760;49.380;8.998;2023-07-16T06:11:31;18.40;99.90
26103;DHT22;69760;49.380;8.998;2023-07-16T06:13:57;18.50;99.90
26103;DHT22;69760;49.380;8.998;2023-07-16T06:16:22;18.60;99.90
26103;DHT22;69760;49.380;8.998;2023-07-16T06:18:50;18.70;99.90
26103;DHT22;69760;49.380;8.998;2023-07-16T06:21:18;18.70;99.90
26103;DHT22;69760;49.380;8.998;2023-07-16T06:23:47;18.80;99.90
26103;DHT22;69760;49.380;8.998;2023-07-16T06:26:16;18.80;99.90
26103;DHT22;69760;49.380;8.998;2023-07-16T06:28:55;18.90;99.90
26103;DHT22;69760;49.380;8.998;2023-07-16T06:31:32;18.90;99.90
26103;DHT22;69760;49.380;8.998;2023-07-16T06:33:59;19.00;99.90
26103;DHT22;69760;49.380;8.998;2023-07-16T06:36:25;18.90;99.90
26103;DHT22;69760;49.380;8.998;2023-07-16T06:38:51;18.80;99.90
26103;DHT22;69760;49.380;8.998;2023-07-16T06:41:18;18.70;99.90
26103;DHT22;69760;49.380;8.998;2023-07-16T06:43:46;18.70;99.90
26103;DHT22;69760;49.380;8.998;2023-07-16T06:46:51;18.80;99.90
26103;DHT22;69760;49.380;8.998;2023-07-16T06:49:25;18.80;99.90
26103;DHT22;69760;49.380;8.998;2023-07-16T06:51:51;18.80;99.90
26103;DHT22;69760;49.380;8.998;2023-07-16T06:54:37;18.80;99.90
26103;DHT22;69760;49.380;8.998;2023-07-16T06:57:06;18.90;99.90
26103;DHT22;69760;49.380;8.998;2023-07-16T06:59:32;18.90;99.90
26103;DHT22;69760;49.380;8.998;2023-07-16T07:01:57;18.90;99.90
26103;DHT22;69760;49.380;8.998;2023-07-16T07:04:23;18.90;99.90
26103;DHT22;69760;49.380;8.998;2023-07-16T07:06:48;19.00;99.90
26103;DHT22;69760;49.380;8.998;2023-07-16T07:09:14;19.10;99.90
26103;DHT22;69760;49.380;8.998;2023-07-16T07:11:39;19.20;99.90
26103;DHT22;69760;49.380;8.998;2023-07-16T07:14:05;19.20;99.90
26103;DHT22;69760;49.380;8.998;2023-07-16T07:16:30;19.30;99.90
26103;DHT22;69760;49.380;8.998;2023-07-16T07:18:56;19.30;99.90
26103;DHT22;69760;49.380;8.998;2023-07-16T07:21:22;19.40;99.90
26103;DHT22;69760;49.380;8.998;2023-07-16T07:23:47;19.50;99.90
26103;DHT22;69760;49.380;8.998;2023-07-16T07:26:13;19.50;99.90
26103;DHT22;69760;49.380;8.998;2023-07-16T07:28:39;19.60;99.90
26103;DHT22;69760;49.380;8.998;2023-07-16T07:31:04;19.50;99.90
26103;DHT22;69760;49.380;8.998;2023-07-16T07:33:30;19.60;99.90
26103;DHT22;69760;49.380;8.998;2023-07-16T07:35:57;19.60;99.90
26103;DHT22;69760;49.380;8.998;2023-07-16T07:38:23;19.80;99.90
26103;DHT22;69760;49.380;8.998;2023-07-16T07:40:48;19.90;99.90
26103;DHT22;69760;49.380;8.998;2023-07-16T07:43:14;19.90;99.90
26103;DHT22;69760;49.380;8.998;2023-07-16T07:45:39;19.90;99.90
26103;DHT22;69760;49.380;8.998;2023-07-16T07:48:05;20.10;99.90
26103;DHT22;69760;49.380;8.998;2023-07-16T07:50:30;20.00;99.90
26103;DHT22;69760;49.380;8.998;2023-07-16T07:52:56;20.00;99.90
26103;DHT22;69760;49.380;8.998;2023-07-16T07:55:21;20.00;99.90
26103;DHT22;69760;49.380;8.998;2023-07-16T07:57:47;19.90;99.90
26103;DHT22;69760;49.380;8.998;2023-07-16T08:00:13;20.00;99.90
26103;DHT22;69760;49.380;8.998;2023-07-16T08:02:39;20.00;99.90
26103;DHT22;69760;49.380;8.998;2023-07-16T08:05:05;20.00;99.90
26103;DHT22;69760;49.380;8.998;2023-07-16T08:07:30;20.00;99.90
26103;DHT22;69760;49.380;8.998;2023-07-16T08:09:56;20.00;99.90
26103;DHT22;69760;49.380;8.998;2023-07-16T08:12:21;20.00;99.90
26103;DHT22;69760;49.380;8.998;2023-07-16T08:14:48;20.10;99.90
26103;DHT22;69760;49.380;8.998;2023-07-16T08:17:13;20.30;99.90
26103;DHT22;69760;49.380;8.998;2023-07-16T08:19:39;20.40;99.90
26103;DHT22;69760;49.380;8.998;2023-07-16T08:22:05;20.50;99.90
26103;DHT22;69760;49.380;8.998;2023-07-16T08:24:30;20.60;99.90
26103;DHT22;69760;49.380;8.998;2023-07-16T08:26:56;20.60;99.90
26103;DHT22;69760;49.380;8.998;2023-07-16T08:29:21;20.60;99.90
26103;DHT22;69760;49.380;8.998;2023-07-16T08:31:47;20.70;99.90
26103;DHT22;69760;49.380;8.998;2023-07-16T08:34:12;20.80;99.90
26103;DHT22;69760;49.380;8.998;2023-07-16T08:36:38;20.80;99.00
26103;DHT22;69760;49.380;8.998;2023-07-16T08:39:04;20.80;99.00
26103;DHT22;69760;49.380;8.998;2023-07-16T08:41:31;20.80;99.00
26103;DHT22;69760;49.380;8.998;2023-07-16T08:43:57;20.90;98.90
26103;DHT22;69760;49.380;8.998;2023-07-16T08:46:23;21.00;99.20
26103;DHT22;69760;49.380;8.998;2023-07-16T08:48:48;21.10;98.80
26103;DHT22;69760;49.380;8.998;2023-07-16T08:51:15;21.30;97.90
26103;DHT22;69760;49.380;8.998;2023-07-16T08:53:41;21.40;97.50
26103;DHT22;69760;49.380;8.998;2023-07-16T08:56:07;21.60;96.50
26103;DHT22;69760;49.380;8.998;2023-07-16T08:58:33;21.60;96.50
26103;DHT22;69760;49.380;8.998;2023-07-16T09:00:59;21.80;96.40
26103;DHT22;69760;49.380;8.998;2023-07-16T09:03:26;21.90;96.20
26103;DHT22;69760;49.380;8.998;2023-07-16T09:05:53;22.10;96.10
26103;DHT22;69760;49.380;8.998;2023-07-16T09:08:19;22.20;94.40
26103;DHT22;69760;49.380;8.998;2023-07-16T09:10:52;22.40;94.20
26103;DHT22;69760;49.380;8.998;2023-07-16T09:13:18;22.50;93.00
26103;DHT22;69760;49.380;8.998;2023-07-16T09:15:44;22.30;92.10
26103;DHT22;69760;49.380;8.998;2023-07-16T09:18:11;22.30;93.20
26103;DHT22;69760;49.380;8.998;2023-07-16T09:20:39;22.30;92.80
26103;DHT22;69760;49.380;8.998;2023-07-16T09:23:05;22.30;92.50
26103;DHT22;69760;49.380;8.998;2023-07-16T09:25:31;22.30;92.30
26103;DHT22;69760;49.380;8.998;2023-07-16T09:28:03;22.30;92.40
26103;DHT22;69760;49.380;8.998;2023-07-16T09:30:33;22.20;91.80
26103;DHT22;69760;49.380;8.998;2023-07-16T09:33:15;22.00;91.90
26103;DHT22;69760;49.380;8.998;2023-07-16T09:35:41;21.80;92.00
26103;DHT22;69760;49.380;8.998;2023-07-16T09:38:08;21.80;92.40
26103;DHT22;69760;49.380;8.998;2023-07-16T09:40:38;21.80;92.50
26103;DHT22;69760;49.380;8.998;2023-07-16T09:43:04;21.80;91.70
26103;DHT22;69760;49.380;8.998;2023-07-16T09:45:31;21.80;92.10
26103;DHT22;69760;49.380;8.998;2023-07-16T09:47:56;21.90;91.70
26103;DHT22;69760;49.380;8.998;2023-07-16T09:50:23;21.90;91.40
26103;DHT22;69760;49.380;8.998;2023-07-16T09:52:52;22.00;91.00
26103;DHT22;69760;49.380;8.998;2023-07-16T09:55:18;22.20;91.80
26103;DHT22;69760;49.380;8.998;2023-07-16T09:57:47;22.20;91.00
26103;DHT22;69760;49.380;8.998;2023-07-16T10:00:15;22.30;90.80
26103;DHT22;69760;49.380;8.998;2023-07-16T10:02:41;22.20;90.40
26103;DHT22;69760;49.380;8.998;2023-07-16T10:05:27;22.10;90.60
26103;DHT22;69760;49.380;8.998;2023-07-16T10:08:01;22.30;89.70
26103;DHT22;69760;49.380;8.998;2023-07-16T10:13:12;22.30;85.70
26103;DHT22;69760;49.380;8.998;2023-07-16T10:15:39;22.30;86.70
26103;DHT22;69760;49.380;8.998;2023-07-16T10:18:05;22.30;84.30
26103;DHT22;69760;49.380;8.998;2023-07-16T10:20:36;22.20;82.30
26103;DHT22;69760;49.380;8.998;2023-07-16T10:23:11;22.20;84.30
26103;DHT22;69760;49.380;8.998;2023-07-16T10:25:57;22.40;82.70
26103;DHT22;69760;49.380;8.998;2023-07-16T10:28:23;22.60;83.30
26103;DHT22;69760;49.380;8.998;2023-07-16T10:30:50;22.80;80.20
26103;DHT22;69760;49.380;8.998;2023-07-16T10:33:15;23.00;83.40
26103;DHT22;69760;49.380;8.998;2023-07-16T10:35:42;23.10;81.30
26103;DHT22;69760;49.380;8.998;2023-07-16T10:38:07;23.30;79.40
26103;DHT22;69760;49.380;8.998;2023-07-16T10:40:33;23.50;80.50
26103;DHT22;69760;49.380;8.998;2023-07-16T10:43:06;23.50;79.00
26103;DHT22;69760;49.380;8.998;2023-07-16T10:45:31;23.50;77.70
26103;DHT22;69760;49.380;8.998;2023-07-16T10:47:57;23.70;77.40
26103;DHT22;69760;49.380;8.998;2023-07-16T10:50:22;23.70;75.80
26103;DHT22;69760;49.380;8.998;2023-07-16T10:52:55;23.80;74.20
26103;DHT22;69760;49.380;8.998;2023-07-16T10:55:22;23.70;73.50
26103;DHT22;69760;49.380;8.998;2023-07-16T10:57:49;23.60;75.40
26103;DHT22;69760;49.380;8.998;2023-07-16T11:00:15;23.70;75.50
26103;DHT22;69760;49.380;8.998;2023-07-16T11:02:42;23.60;75.00
26103;DHT22;69760;49.380;8.998;2023-07-16T11:05:15;23.70;74.10
26103;DHT22;69760;49.380;8.998;2023-07-16T11:07:48;23.80;73.20
26103;DHT22;69760;49.380;8.998;2023-07-16T11:10:17;23.90;72.50
26103;DHT22;69760;49.380;8.998;2023-07-16T11:12:43;24.00;71.70
26103;DHT22;69760;49.380;8.998;2023-07-16T11:15:09;24.00;71.70
26103;DHT22;69760;49.380;8.998;2023-07-16T11:17:38;23.90;71.50
26103;DHT22;69760;49.380;8.998;2023-07-16T11:20:07;23.80;72.30
26103;DHT22;69760;49.380;8.998;2023-07-16T11:22:36;23.80;72.00
26103;DHT22;69760;49.380;8.998;2023-07-16T11:25:02;23.90;70.00
26103;DHT22;69760;49.380;8.998;2023-07-16T11:27:31;24.00;68.90
26103;DHT22;69760;49.380;8.998;2023-07-16T11:29:58;24.10;69.90
26103;DHT22;69760;49.380;8.998;2023-07-16T11:32:38;24.20;70.10
26103;DHT22;69760;49.380;8.998;2023-07-16T11:35:08;24.40;70.10
26103;DHT22;69760;49.380;8.998;2023-07-16T11:37:35;24.50;67.60
26103;DHT22;69760;49.380;8.998;2023-07-16T11:40:06;24.60;66.90
26103;DHT22;69760;49.380;8.998;2023-07-16T11:42:33;24.70;63.50
26103;DHT22;69760;49.380;8.998;2023-07-16T11:44:59;24.80;64.00
26103;DHT22;69760;49.380;8.998;2023-07-16T11:47:25;24.90;60.70
26103;DHT22;69760;49.380;8.998;2023-07-16T11:49:51;24.90;61.30
26103;DHT22;69760;49.380;8.998;2023-07-16T11:52:22;24.90;60.10
26103;DHT22;69760;49.380;8.998;2023-07-16T11:54:48;24.80;60.50
26103;DHT22;69760;49.380;8.998;2023-07-16T11:57:14;24.90;61.40
26103;DHT22;69760;49.380;8.998;2023-07-16T11:59:39;25.00;60.90
26103;DHT22;69760;49.380;8.998;2023-07-16T12:02:05;25.10;61.60
26103;DHT22;69760;49.380;8.998;2023-07-16T12:04:31;25.10;59.60
26103;DHT22;69760;49.380;8.998;2023-07-16T12:06:56;25.20;60.10
26103;DHT22;69760;49.380;8.998;2023-07-16T12:09:22;25.20;61.20
26103;DHT22;69760;49.380;8.998;2023-07-16T12:11:47;25.40;60.80
26103;DHT22;69760;49.380;8.998;2023-07-16T12:14:13;25.60;61.80
26103;DHT22;69760;49.380;8.998;2023-07-16T12:16:40;25.70;59.60
26103;DHT22;69760;49.380;8.998;2023-07-16T12:19:08;25.80;59.90
26103;DHT22;69760;49.380;8.998;2023-07-16T12:21:34;25.80;60.20
26103;DHT22;69760;49.380;8.998;2023-07-16T12:23:59;25.90;61.00
26103;DHT22;69760;49.380;8.998;2023-07-16T12:26:25;26.00;60.00
26103;DHT22;69760;49.380;8.998;2023-07-16T12:28:50;26.00;59.00
26103;DHT22;69760;49.380;8.998;2023-07-16T12:31:16;26.00;60.00
26103;DHT22;69760;49.380;8.998;2023-07-16T12:33:43;26.10;58.80
26103;DHT22;69760;49.380;8.998;2023-07-16T12:36:08;26.00;58.20
26103;DHT22;69760;49.380;8.998;2023-07-16T12:38:34;25.90;58.40
26103;DHT22;69760;49.380;8.998;2023-07-16T12:40:59;26.00;58.20
26103;DHT22;69760;49.380;8.998;2023-07-16T12:43:25;25.90;56.70
26103;DHT22;69760;49.380;8.998;2023-07-16T12:45:50;25.70;57.50
26103;DHT22;69760;49.380;8.998;2023-07-16T12:48:16;25.80;58.20
26103;DHT22;69760;49.380;8.998;2023-07-16T12:50:41;25.90;56.50
26103;DHT22;69760;49.380;8.998;2023-07-16T12:53:08;25.90;56.20
26103;DHT22;69760;49.380;8.998;2023-07-16T12:55:33;25.90;56.90
26103;DHT22;69760;49.380;8.998;2023-07-16T12:57:59;26.00;57.60
26103;DHT22;69760;49.380;8.998;2023-07-16T13:00:25;26.10;57.60
26103;DHT22;69760;49.380;8.998;2023-07-16T13:02:50;26.20;56.50
26103;DHT22;69760;49.380;8.998;2023-07-16T13:05:16;26.30;57.30
26103;DHT22;69760;49.380;8.998;2023-07-16T13:07:41;26.50;55.70
26103;DHT22;69760;49.380;8.998;2023-07-16T13:10:08;26.60;55.70
26103;DHT22;69760;49.380;8.998;2023-07-16T13:12:34;26.60;54.80
26103;DHT22;69760;49.380;8.998;2023-07-16T13:14:59;26.70;55.30
26103;DHT22;69760;49.380;8.998;2023-07-16T13:17:25;26.80;56.50
26103;DHT22;69760;49.380;8.998;2023-07-16T13:19:50;27.10;56.50
26103;DHT22;69760;49.380;8.998;2023-07-16T13:22:16;27.20;54.80
26103;DHT22;69760;49.380;8.998;2023-07-16T13:24:42;27.20;52.60
26103;DHT22;69760;49.380;8.998;2023-07-16T13:27:09;27.20;54.60
26103;DHT22;69760;49.380;8.998;2023-07-16T13:29:35;27.30;54.50
26103;DHT22;69760;49.380;8.998;2023-07-16T13:32:01;27.30;54.90
26103;DHT22;69760;49.380;8.998;2023-07-16T13:34:26;27.40;53.40
26103;DHT22;69760;49.380;8.998;2023-07-16T13:36:52;27.40;54.10
26103;DHT22;69760;49.380;8.998;2023-07-16T13:39:17;27.40;53.70
26103;DHT22;69760;49.380;8.998;2023-07-16T13:41:43;27.60;53.60
26103;DHT22;69760;49.380;8.998;2023-07-16T13:44:08;27.60;52.30
26103;DHT22;69760;49.380;8.998;2023-07-16T13:46:34;27.50;52.90
26103;DHT22;69760;49.380;8.998;2023-07-16T13:49:00;27.60;52.50
26103;DHT22;69760;49.380;8.998;2023-07-16T13:51:26;27.80;52.30
26103;DHT22;69760;49.380;8.998;2023-07-16T13:53:51;27.80;50.70
26103;DHT22;69760;49.380;8.998;2023-07-16T13:56:17;27.90;51.80
26103;DHT22;69760;49.380;8.998;2023-07-16T13:58:42;27.90;52.80
26103;DHT22;69760;49.380;8.998;2023-07-16T14:01:08;28.00;51.90
26103;DHT22;69760;49.380;8.998;2023-07-16T14:03:34;28.00;51.00
26103;DHT22;69760;49.380;8.998;2023-07-16T14:05:59;28.00;51.60
26103;DHT22;69760;49.380;8.998;2023-07-16T14:08:25;28.20;51.10
26103;DHT22;69760;49.380;8.998;2023-07-16T14:10:50;28.10;49.80
26103;DHT22;69760;49.380;8.998;2023-07-16T14:13:16;28.30;50.90
26103;DHT22;69760;49.380;8.998;2023-07-16T14:15:42;28.40;49.90
26103;DHT22;69760;49.380;8.998;2023-07-16T14:18:08;28.60;49.80
26103;DHT22;69760;49.380;8.998;2023-07-16T14:20:33;28.80;49.30
26103;DHT22;69760;49.380;8.998;2023-07-16T14:22:59;28.90;49.40
26103;DHT22;69760;49.380;8.998;2023-07-16T14:25:25;29.00;49.40
26103;DHT22;69760;49.380;8.998;2023-07-16T14:27:50;29.10;49.80
26103;DHT22;69760;49.380;8.998;2023-07-16T14:30:16;28.90;49.10
26103;DHT22;69760;49.380;8.998;2023-07-16T14:32:42;28.80;49.50
26103;DHT22;69760;49.380;8.998;2023-07-16T14:35:08;28.70;51.10
26103;DHT22;69760;49.380;8.998;2023-07-16T14:37:34;28.80;51.30
26103;DHT22;69760;49.380;8.998;2023-07-16T14:40:00;28.90;50.40
26103;DHT22;69760;49.380;8.998;2023-07-16T14:42:25;29.10;49.70
26103;DHT22;69760;49.380;8.998;2023-07-16T14:44:51;29.20;50.50
26103;DHT22;69760;49.380;8.998;2023-07-16T14:47:17;29.40;49.50
26103;DHT22;69760;49.380;8.998;2023-07-16T14:49:42;29.40;49.30
26103;DHT22;69760;49.380;8.998;2023-07-16T14:52:08;29.30;50.00
26103;DHT22;69760;49.380;8.998;2023-07-16T14:54:33;29.40;49.40
26103;DHT22;69760;49.380;8.998;2023-07-16T14:57:01;29.40;49.00
26103;DHT22;69760;49.380;8.998;2023-07-16T14:59:28;29.50;50.30
26103;DHT22;69760;49.380;8.998;2023-07-16T15:01:54;29.60;50.10
26103;DHT22;69760;49.380;8.998;2023-07-16T15:04:19;29.60;49.20
26103;DHT22;69760;49.380;8.998;2023-07-16T15:06:45;29.80;50.10
26103;DHT22;69760;49.380;8.998;2023-07-16T15:09:10;29.90;49.20
26103;DHT22;69760;49.380;8.998;2023-07-16T15:11:37;29.90;48.50
26103;DHT22;69760;49.380;8.998;2023-07-16T15:14:03;29.90;48.00
26103;DHT22;69760;49.380;8.998;2023-07-16T15:16:29;29.90;47.20
26103;DHT22;69760;49.380;8.998;2023-07-16T15:18:55;30.10;47.50
26103;DHT22;69760;49.380;8.998;2023-07-16T15:21:20;30.20;46.90
26103;DHT22;69760;49.380;8.998;2023-07-16T15:23:46;30.40;48.30
26103;DHT22;69760;49.380;8.998;2023-07-16T15:26:11;30.50;46.10
26103;DHT22;69760;49.380;8.998;2023-07-16T15:28:38;30.50;46.70
26103;DHT22;69760;49.380;8.998;2023-07-16T15:31:06;30.70;47.00
26103;DHT22;69760;49.380;8.998;2023-07-16T15:33:32;30.70;46.00
26103;DHT22;69760;49.380;8.998;2023-07-16T15:35:59;30.60;46.20